Airfield :
LOGIN :

Register | Disclaimer

   EN    FR    IT 

 










Legend :    VFR   Marginal VFR   IFR   Intensive IFR   Very Intensive IFR
Visi :
Ceiling :
>= 8 km
>= 3000ft
5 to 8 km
1000 to 3000 ft
1500m to 5 km
500 to 1000 ft
800 to 1500m
200 to 500 ft
< 800m
< 200 ft
Symbols :   Thunderstorms  Fog  Heavy snow  Heavy precipitations  Wind > 20 kt
SIGMETs :     Misc.  Thunderstorms  Icing  Turbulence  Mountain Waves  Volcanic Ashes







- Airport Elevation : 236 ft
- IATA code : MMX


ESMS - Malmö Sturup

CURRENT METAR :
  • 201850Z 11003KT 0700 R17/P1500N R35/P1500 -SN VV019 00/M00 Q1003 R17/29//95

EXPIRED METARs :
  • 201820Z 13003KT 4000 -SN FEW002 SCT038 OVC051 01/00 Q1003 R17/29//95
  • 201750Z 13003KT 3100 -SN FEW017 SCT025 BKN045 00/00 Q1003 R17/29//95
  • 201720Z 11003KT 4000 -SN FEW027 BKN048 00/00 Q1003 R17/29//95
  • 201650Z 14003KT 3500 -SN BKN003 BKN038 00/00 Q1003 R17/29//95
  • 201620Z 15003KT 5000 -DZ SCT003 BKN010 BKN017 01/00 Q1003 R17/29//95

TAF TAF ESMS
Valid from the 20 at 18:00 until the 21 at 18:00 UTC


201705Z 2018/2118 VRB03KT 8000 SCT008 BKN015
TEMPO 2018/2108 2000 -SHSNRA BR BKN004
TEMPO 2108/2112 4000 BR BKN008
No reported NOTAMs for that airfield.



MET'MAP, your aeronautical weather chart ! - Copyright ORBIFLY December 2007 - Disclaimer

ORBIFLY MET'MAP TEAM :

Programming & Development : Alexandra Zaïnal
Concept & Development : Baudouin d'Aumeries
Co-Development & Prog : Marc-Olivier Méhu
Technical & hardware support : Manuel Goepfert

Contact : metmap@orbifly.com




SOURCES & CREDITS :

   NOAA